createdAt,value
2022-09-30T00:00:14.712Z,96186.25
2022-09-30T00:02:41.084Z,96197.34
2022-09-30T00:05:07.602Z,96196.63
2022-09-30T00:07:33.955Z,96191.38
2022-09-30T00:10:00.320Z,96198.91
2022-09-30T00:12:27.368Z,96202.47
2022-09-30T00:14:54.101Z,96203.44
2022-09-30T00:17:21.038Z,96201.28
2022-09-30T00:19:47.809Z,96199.28
2022-09-30T00:22:14.324Z,96196.88
2022-09-30T00:24:40.802Z,96195.91
2022-09-30T00:27:07.224Z,96196.03
2022-09-30T00:29:33.590Z,96198.31
2022-09-30T00:32:00.156Z,96199.88
2022-09-30T00:34:26.665Z,96197.59
2022-09-30T00:36:53.855Z,96207.63
2022-09-30T00:39:22.221Z,96192.69
2022-09-30T00:41:52.007Z,96196.88
2022-09-30T00:44:36.791Z,96206.31
2022-09-30T00:47:03.212Z,96210.84
2022-09-30T00:49:29.671Z,96208.56
2022-09-30T00:51:57.405Z,96216.22
2022-09-30T00:54:26.316Z,96220.28
2022-09-30T00:56:55.533Z,96232.09
2022-09-30T00:59:27.137Z,96236.63
2022-09-30T01:01:54.095Z,96230.41
2022-09-30T01:04:22.307Z,96223.25
2022-09-30T01:06:49.423Z,96222.19
2022-09-30T01:09:16.260Z,96227.69
2022-09-30T01:11:42.718Z,96226.00
2022-09-30T01:14:14.474Z,96219.91
2022-09-30T01:16:53.114Z,96215.25
2022-09-30T01:19:31.803Z,96216.59
2022-09-30T01:22:09.851Z,96216.91
2022-09-30T01:24:36.171Z,96206.41
2022-09-30T01:27:20.808Z,96208.56
2022-09-30T01:30:01.746Z,96218.09
2022-09-30T01:32:31.609Z,96211.66
2022-09-30T01:35:18.275Z,96214.16
2022-09-30T01:37:44.616Z,96206.28
2022-09-30T01:40:22.740Z,96207.84
2022-09-30T01:43:15.342Z,96205.34
2022-09-30T01:45:46.930Z,96211.19
2022-09-30T01:48:16.092Z,96212.63
2022-09-30T01:50:42.423Z,96215.97
2022-09-30T01:53:27.568Z,96220.38
2022-09-30T01:55:57.797Z,96225.97
2022-09-30T01:58:45.824Z,96220.50
2022-09-30T02:01:17.501Z,96225.88
2022-09-30T02:03:48.076Z,96222.03
2022-09-30T02:06:18.445Z,96230.88
2022-09-30T02:08:51.927Z,96222.53
2022-09-30T02:11:23.997Z,96232.19
2022-09-30T02:14:05.843Z,96223.25
2022-09-30T02:16:46.030Z,96234.09
2022-09-30T02:19:26.881Z,96241.72
2022-09-30T02:21:57.383Z,96231.47
2022-09-30T02:24:26.605Z,96240.88
2022-09-30T02:26:56.282Z,96234.44
2022-09-30T02:29:25.931Z,96234.66
2022-09-30T02:31:56.018Z,96237.38
2022-09-30T02:34:25.375Z,96237.28
2022-09-30T02:36:57.185Z,96239.44
2022-09-30T02:39:40.957Z,96235.00
2022-09-30T02:42:11.551Z,96232.75
2022-09-30T02:44:38.625Z,96240.75
2022-09-30T02:47:08.031Z,96243.75
2022-09-30T02:49:46.758Z,96241.13
2022-09-30T02:52:13.141Z,96245.53
2022-09-30T02:54:43.373Z,96244.19
2022-09-30T02:57:18.754Z,96252.31
2022-09-30T02:59:51.198Z,96243.75
2022-09-30T03:02:18.071Z,96250.78
2022-09-30T03:04:46.319Z,96252.56
2022-09-30T03:07:12.959Z,96249.94
2022-09-30T03:09:39.462Z,96252.56
2022-09-30T03:12:19.624Z,96247.44
2022-09-30T03:14:48.889Z,96247.19
2022-09-30T03:17:26.902Z,96250.06
2022-09-30T03:20:09.285Z,96256.03
2022-09-30T03:22:38.726Z,96262.13
2022-09-30T03:25:11.252Z,96262.25
2022-09-30T03:27:42.673Z,96264.13
2022-09-30T03:30:11.446Z,96268.56
2022-09-30T03:32:37.765Z,96269.63
2022-09-30T03:35:14.047Z,96261.75
2022-09-30T03:37:52.043Z,96265.06
2022-09-30T03:40:21.638Z,96269.63
2022-09-30T03:42:53.953Z,96279.06
2022-09-30T03:45:41.648Z,96282.75
2022-09-30T03:48:10.061Z,96292.69
2022-09-30T03:50:37.993Z,96288.75
2022-09-30T03:53:09.220Z,96289.00
2022-09-30T03:55:43.868Z,96296.88
2022-09-30T03:58:10.187Z,96294.25
2022-09-30T04:00:37.161Z,96294.91
2022-09-30T04:03:03.626Z,96295.00
2022-09-30T04:05:29.978Z,96299.56
2022-09-30T04:07:56.345Z,96302.88
2022-09-30T04:10:22.714Z,96308.25
2022-09-30T04:12:49.145Z,96303.88
2022-09-30T04:15:15.470Z,96312.56
2022-09-30T04:17:41.839Z,96314.13
2022-09-30T04:20:08.381Z,96318.56
2022-09-30T04:22:34.733Z,96322.81
2022-09-30T04:25:01.072Z,96324.50
2022-09-30T04:27:27.441Z,96320.81
2022-09-30T04:29:53.787Z,96325.44
2022-09-30T04:32:21.950Z,96321.06
2022-09-30T04:34:48.362Z,96328.81
2022-09-30T04:37:15.707Z,96338.47
2022-09-30T04:39:42.053Z,96331.75
2022-09-30T04:42:08.464Z,96333.13
2022-09-30T04:44:35.330Z,96334.06
2022-09-30T04:47:01.773Z,96336.31
2022-09-30T04:49:28.154Z,96347.31
2022-09-30T04:51:54.643Z,96354.22
2022-09-30T04:54:21.005Z,96349.31
2022-09-30T04:56:47.370Z,96352.19
2022-09-30T04:59:13.955Z,96360.06
2022-09-30T05:01:42.475Z,96367.81
2022-09-30T05:04:09.545Z,96370.25
2022-09-30T05:06:36.321Z,96372.63
2022-09-30T05:09:02.717Z,96377.88
2022-09-30T05:11:29.618Z,96386.28
2022-09-30T05:13:56.011Z,96389.13
2022-09-30T05:16:22.413Z,96389.94
2022-09-30T05:18:49.527Z,96395.81
2022-09-30T05:21:17.618Z,96399.50
2022-09-30T05:23:43.973Z,96402.53
2022-09-30T05:26:12.428Z,96402.28
2022-09-30T05:28:39.573Z,96412.47
2022-09-30T05:31:06.555Z,96404.47
2022-09-30T05:33:34.073Z,96412.22
2022-09-30T05:36:01.671Z,96409.03
2022-09-30T05:38:28.109Z,96402.59
2022-09-30T05:40:54.635Z,96407.25
2022-09-30T05:43:21.101Z,96407.97
2022-09-30T05:45:56.789Z,96407.66
2022-09-30T05:48:24.819Z,96408.56
2022-09-30T05:50:55.316Z,96409.88
2022-09-30T05:53:21.680Z,96398.72
2022-09-30T05:55:48.581Z,96403.81
2022-09-30T05:58:15.322Z,96412.44
2022-09-30T06:00:42.584Z,96413.66
2022-09-30T06:03:09.063Z,96408.88
2022-09-30T06:05:35.450Z,96416.88
2022-09-30T06:08:02.149Z,96419.38
2022-09-30T06:10:28.684Z,96423.44
2022-09-30T06:12:55.123Z,96426.59
2022-09-30T06:15:21.581Z,96424.56
2022-09-30T06:17:54.453Z,96430.50
2022-09-30T06:20:22.598Z,96441.38
2022-09-30T06:22:48.965Z,96437.72
2022-09-30T06:25:15.406Z,96440.72
2022-09-30T06:27:44.482Z,96449.19
2022-09-30T06:30:11.062Z,96448.56
2022-09-30T06:32:37.431Z,96441.31
2022-09-30T06:35:04.159Z,96447.44
2022-09-30T06:37:30.589Z,96453.47
2022-09-30T06:39:56.960Z,96465.66
2022-09-30T06:42:24.443Z,96463.69
2022-09-30T06:44:53.462Z,96466.28
2022-09-30T06:47:25.179Z,96465.72
2022-09-30T06:49:53.047Z,96457.69
2022-09-30T06:52:20.095Z,96458.84
2022-09-30T06:54:47.094Z,96474.97
2022-09-30T06:57:13.662Z,96461.19
2022-09-30T06:59:40.042Z,96462.88
2022-09-30T07:02:06.547Z,96471.66
2022-09-30T07:04:32.989Z,96471.19
2022-09-30T07:06:59.335Z,96478.03
2022-09-30T07:09:25.852Z,96479.22
2022-09-30T07:11:52.377Z,96483.59
2022-09-30T07:14:18.793Z,96486.16
2022-09-30T07:16:45.353Z,96483.28
2022-09-30T07:19:12.094Z,96494.31
2022-09-30T07:21:38.421Z,96491.69
2022-09-30T07:24:05.615Z,96489.50
2022-09-30T07:26:32.465Z,96489.69
2022-09-30T07:29:00.206Z,96489.69
2022-09-30T07:31:32.926Z,96496.28
2022-09-30T07:34:00.386Z,96492.97
2022-09-30T07:36:33.787Z,96493.91
2022-09-30T07:39:05.364Z,96500.97
2022-09-30T07:41:31.892Z,96503.88
2022-09-30T07:44:01.472Z,96498.81
2022-09-30T07:46:31.359Z,96499.09
2022-09-30T07:49:01.487Z,96501.00
2022-09-30T07:51:31.087Z,96493.06
2022-09-30T07:53:59.448Z,96486.66
2022-09-30T07:56:25.984Z,96489.41
2022-09-30T07:58:56.430Z,96486.50
2022-09-30T08:01:23.137Z,96484.81
2022-09-30T08:03:52.709Z,96482.63
2022-09-30T08:06:19.628Z,96488.97
2022-09-30T08:08:47.508Z,96487.16
2022-09-30T08:11:16.999Z,96484.19
2022-09-30T08:13:43.408Z,96487.78
2022-09-30T08:16:09.802Z,96496.44
2022-09-30T08:18:36.387Z,96496.03
2022-09-30T08:21:06.498Z,96492.75
2022-09-30T08:23:33.819Z,96487.59
2022-09-30T08:26:01.173Z,96481.19
2022-09-30T08:28:27.703Z,96481.13
2022-09-30T08:30:54.201Z,96485.00
2022-09-30T08:33:20.665Z,96493.88
2022-09-30T08:35:47.193Z,96509.22
2022-09-30T08:38:13.661Z,96510.91
2022-09-30T08:40:55.530Z,96516.09
2022-09-30T08:43:42.429Z,96516.06
2022-09-30T08:46:30.422Z,96527.28
2022-09-30T08:49:24.165Z,96525.88
2022-09-30T08:51:52.474Z,96528.72
2022-09-30T08:54:23.099Z,96528.72
2022-09-30T08:56:49.890Z,96533.69
2022-09-30T08:59:32.853Z,96535.09
2022-09-30T09:02:30.323Z,96545.22
2022-09-30T09:05:05.475Z,96556.53
2022-09-30T09:07:37.451Z,96560.09
2022-09-30T09:10:44.019Z,96563.59
2022-09-30T09:13:25.825Z,96574.69
2022-09-30T09:16:21.034Z,96583.72
2022-09-30T09:18:54.879Z,96589.81
2022-09-30T09:21:42.209Z,96576.63
2022-09-30T09:24:22.376Z,96575.41
2022-09-30T09:26:49.902Z,96567.06
2022-09-30T09:29:34.715Z,96570.91
2022-09-30T09:32:03.492Z,96564.38
2022-09-30T09:34:30.722Z,96567.78
2022-09-30T09:37:00.034Z,96561.53
2022-09-30T09:39:49.541Z,96574.22
2022-09-30T09:42:42.416Z,96569.97
2022-09-30T09:45:34.827Z,96572.59
2022-09-30T09:48:01.608Z,96576.22
2022-09-30T09:50:57.496Z,96583.13
2022-09-30T09:53:42.209Z,96581.78
2022-09-30T09:56:24.154Z,96576.50
2022-09-30T09:59:09.684Z,96585.91
2022-09-30T10:01:39.868Z,96591.50
2022-09-30T10:04:10.404Z,96588.66
2022-09-30T10:07:00.600Z,96589.31
2022-09-30T10:09:33.450Z,96582.28
2022-09-30T10:12:05.928Z,96589.97
2022-09-30T10:14:46.134Z,96584.50
2022-09-30T10:17:19.983Z,96581.94
2022-09-30T10:19:54.886Z,96575.09
2022-09-30T10:22:28.835Z,96574.22
2022-09-30T10:25:14.095Z,96571.94
2022-09-30T10:27:59.911Z,96564.88
2022-09-30T10:30:38.857Z,96569.28
2022-09-30T10:33:23.858Z,96546.59
2022-09-30T10:36:00.276Z,96537.84
2022-09-30T10:38:29.749Z,96539.69
2022-09-30T10:40:56.939Z,96545.56
2022-09-30T10:43:50.022Z,96549.63
2022-09-30T10:46:27.708Z,96545.50
2022-09-30T10:48:56.254Z,96532.25
2022-09-30T10:51:34.043Z,96530.91
2022-09-30T10:54:00.988Z,96522.16
2022-09-30T10:56:34.854Z,96509.66
2022-09-30T10:59:02.859Z,96526.75
2022-09-30T11:01:51.510Z,96532.50
2022-09-30T11:04:28.911Z,96551.41
2022-09-30T11:07:15.542Z,96565.69
2022-09-30T11:09:52.142Z,96582.03
2022-09-30T11:12:24.628Z,96584.59
2022-09-30T11:14:57.806Z,96589.53
2022-09-30T11:17:59.243Z,96602.13
2022-09-30T11:20:38.907Z,96607.84
2022-09-30T11:23:05.294Z,96618.47
2022-09-30T11:25:34.726Z,96616.91
2022-09-30T11:28:26.203Z,96609.59
2022-09-30T11:31:08.214Z,96598.81
2022-09-30T11:33:41.298Z,96610.81
2022-09-30T11:36:07.649Z,96619.09
2022-09-30T11:38:42.174Z,96612.59
2022-09-30T11:41:34.978Z,96621.47
2022-09-30T11:44:01.394Z,96623.47
2022-09-30T11:46:33.858Z,96617.28
2022-09-30T11:49:26.734Z,96629.56
2022-09-30T11:52:07.397Z,96617.34
2022-09-30T11:54:45.128Z,96615.59
2022-09-30T11:57:17.700Z,96608.88
2022-09-30T11:59:48.517Z,96612.91
2022-09-30T12:02:35.153Z,96600.91
2022-09-30T12:05:07.853Z,96598.84
2022-09-30T12:07:43.927Z,96598.34
2022-09-30T12:10:16.458Z,96591.63
2022-09-30T12:12:43.911Z,96592.72
2022-09-30T12:15:15.462Z,96599.91
2022-09-30T12:17:48.474Z,96604.38
2022-09-30T12:20:26.682Z,96601.72
2022-09-30T12:23:01.137Z,96601.19
2022-09-30T12:25:40.627Z,96613.06
2022-09-30T12:28:34.784Z,96619.50
2022-09-30T12:31:21.220Z,96609.94
2022-09-30T12:34:00.714Z,96613.34
2022-09-30T12:36:45.991Z,96614.31
2022-09-30T12:39:24.643Z,96622.22
2022-09-30T12:42:14.327Z,96624.91
2022-09-30T12:45:06.767Z,96621.22
2022-09-30T12:47:36.103Z,96626.88
2022-09-30T12:50:06.143Z,96633.88
2022-09-30T12:52:33.913Z,96627.44
2022-09-30T12:55:02.969Z,96630.31
2022-09-30T12:57:34.029Z,96625.75
2022-09-30T13:00:02.516Z,96634.53
2022-09-30T13:02:31.841Z,96629.50
2022-09-30T13:05:17.946Z,96624.34
2022-09-30T13:08:02.718Z,96631.72
2022-09-30T13:10:31.100Z,96623.34
2022-09-30T13:13:19.213Z,96624.84
2022-09-30T13:15:46.427Z,96620.72
2022-09-30T13:18:28.161Z,96624.00
2022-09-30T13:20:56.738Z,96614.47
2022-09-30T13:23:41.613Z,96613.59
2022-09-30T13:26:26.291Z,96610.03
2022-09-30T13:28:53.542Z,96601.19
2022-09-30T13:31:23.732Z,96605.69
2022-09-30T13:34:01.986Z,96610.69
2022-09-30T13:36:31.714Z,96601.09
2022-09-30T13:39:21.657Z,96606.00
2022-09-30T13:42:00.282Z,96612.34
2022-09-30T13:44:32.730Z,96604.41
2022-09-30T13:47:08.841Z,96607.53
2022-09-30T13:49:35.158Z,96598.75
2022-09-30T13:52:06.465Z,96603.47
2022-09-30T13:54:37.672Z,96615.44
2022-09-30T13:57:06.493Z,96612.63
2022-09-30T14:00:01.968Z,96604.41
2022-09-30T14:02:46.534Z,96597.59
2022-09-30T14:06:00.640Z,96598.25
2022-09-30T14:08:47.342Z,96596.00
2022-09-30T14:11:35.603Z,96593.25
2022-09-30T14:14:25.756Z,96604.53
2022-09-30T14:16:54.959Z,96598.75
2022-09-30T14:19:34.062Z,96597.06
2022-09-30T14:22:06.913Z,96589.81
2022-09-30T14:24:37.806Z,96582.31
2022-09-30T14:27:38.086Z,96598.09
2022-09-30T14:30:20.623Z,96594.22
2022-09-30T14:32:55.328Z,96600.59
2022-09-30T14:35:29.463Z,96613.03
2022-09-30T14:38:01.181Z,96616.38
2022-09-30T14:40:30.470Z,96621.47
2022-09-30T14:43:04.945Z,96629.81
2022-09-30T14:45:35.069Z,96635.66
2022-09-30T14:48:08.331Z,96632.25
2022-09-30T14:50:46.003Z,96630.94
2022-09-30T14:53:34.219Z,96629.53
2022-09-30T14:56:03.039Z,96640.59
2022-09-30T14:58:31.600Z,96634.31
2022-09-30T15:01:10.023Z,96631.81
2022-09-30T15:03:39.883Z,96630.72
2022-09-30T15:06:18.214Z,96622.84
2022-09-30T15:08:44.702Z,96621.22
2022-09-30T15:11:18.346Z,96622.75
2022-09-30T15:13:45.332Z,96628.50
2022-09-30T15:16:30.502Z,96635.75
2022-09-30T15:18:58.021Z,96625.59
2022-09-30T15:21:27.273Z,96628.66
2022-09-30T15:24:00.741Z,96629.28
2022-09-30T15:26:27.776Z,96630.09
2022-09-30T15:28:54.858Z,96618.69
2022-09-30T15:31:29.207Z,96625.81
2022-09-30T15:34:20.452Z,96630.53
2022-09-30T15:36:58.195Z,96629.72
2022-09-30T15:39:47.558Z,96619.00
2022-09-30T15:42:35.405Z,96632.09
2022-09-30T15:45:43.338Z,96627.25
2022-09-30T15:48:16.765Z,96634.25
2022-09-30T15:50:44.550Z,96644.13
2022-09-30T15:53:24.214Z,96653.69
2022-09-30T15:55:59.951Z,96658.84
2022-09-30T15:58:26.657Z,96655.22
2022-09-30T16:01:09.194Z,96655.63
2022-09-30T16:03:36.689Z,96655.88
2022-09-30T16:06:12.327Z,96659.75
2022-09-30T16:08:44.665Z,96662.78
2022-09-30T16:11:21.861Z,96665.66
2022-09-30T16:13:49.171Z,96671.63
2022-09-30T16:16:23.991Z,96662.97
2022-09-30T16:18:53.361Z,96673.78
2022-09-30T16:21:44.776Z,96672.19
2022-09-30T16:24:44.534Z,96681.88
2022-09-30T16:27:22.787Z,96688.50
2022-09-30T16:29:49.263Z,96684.91
2022-09-30T16:32:15.764Z,96696.00
2022-09-30T16:34:42.286Z,96690.13
2022-09-30T16:37:13.635Z,96693.97
2022-09-30T16:39:40.471Z,96692.13
2022-09-30T16:42:12.144Z,96698.66
2022-09-30T16:44:38.595Z,96692.50
2022-09-30T16:47:05.116Z,96684.28
2022-09-30T16:49:31.562Z,96691.81
2022-09-30T16:51:58.094Z,96696.94
2022-09-30T16:54:24.739Z,96702.63
2022-09-30T16:56:51.248Z,96702.06
2022-09-30T16:59:19.034Z,96705.38
2022-09-30T17:01:45.518Z,96707.13
2022-09-30T17:04:15.227Z,96708.47
2022-09-30T17:06:44.132Z,96716.41
2022-09-30T17:09:10.603Z,96712.94
2022-09-30T17:11:38.089Z,96737.56
2022-09-30T17:14:05.762Z,96735.75
2022-09-30T17:16:34.250Z,96743.13
2022-09-30T17:19:01.039Z,96745.50
2022-09-30T17:21:27.947Z,96734.09
2022-09-30T17:23:55.722Z,96740.06
2022-09-30T17:26:22.636Z,96738.44
2022-09-30T17:28:49.101Z,96737.78
2022-09-30T17:31:15.962Z,96739.63
2022-09-30T17:33:42.525Z,96745.97
2022-09-30T17:36:13.119Z,96741.56
2022-09-30T17:38:39.907Z,96745.72
2022-09-30T17:41:25.586Z,96740.44
2022-09-30T17:43:52.099Z,96749.59
2022-09-30T17:46:22.531Z,96754.22
2022-09-30T17:48:50.790Z,96750.59
2022-09-30T17:51:17.325Z,96756.88
2022-09-30T17:53:44.455Z,96757.59
2022-09-30T17:56:20.650Z,96754.13
2022-09-30T17:58:49.079Z,96754.50
2022-09-30T18:01:18.209Z,96768.84
2022-09-30T18:03:45.871Z,96757.31
2022-09-30T18:06:14.452Z,96757.03
2022-09-30T18:08:41.123Z,96767.31
2022-09-30T18:11:07.701Z,96766.59
2022-09-30T18:13:34.331Z,96765.75
2022-09-30T18:16:06.108Z,96757.16
2022-09-30T18:18:34.523Z,96757.16
2022-09-30T18:21:01.001Z,96756.91
2022-09-30T18:23:27.451Z,96749.13
2022-09-30T18:25:54.973Z,96747.44
2022-09-30T18:28:21.547Z,96749.91
2022-09-30T18:30:48.080Z,96744.25
2022-09-30T18:33:17.291Z,96753.91
2022-09-30T18:35:44.219Z,96754.81
2022-09-30T18:38:12.751Z,96764.38
2022-09-30T18:40:43.298Z,96774.38
2022-09-30T18:43:12.926Z,96773.44
2022-09-30T18:45:40.284Z,96773.09
2022-09-30T18:48:07.480Z,96762.34
2022-09-30T18:50:34.652Z,96767.00
2022-09-30T18:53:09.125Z,96767.81
2022-09-30T18:55:39.768Z,96774.78
2022-09-30T18:58:06.256Z,96782.03
2022-09-30T19:00:32.895Z,96789.91
2022-09-30T19:02:59.487Z,96792.31
2022-09-30T19:05:26.441Z,96790.97
2022-09-30T19:07:53.739Z,96791.06
2022-09-30T19:10:20.703Z,96795.44
2022-09-30T19:12:47.213Z,96788.63
2022-09-30T19:15:17.905Z,96784.41
2022-09-30T19:17:45.235Z,96782.41
2022-09-30T19:20:12.894Z,96779.28
2022-09-30T19:22:39.354Z,96776.63
2022-09-30T19:25:08.145Z,96783.59
2022-09-30T19:27:37.689Z,96792.97
2022-09-30T19:30:06.382Z,96794.88
2022-09-30T19:32:35.007Z,96795.91
2022-09-30T19:35:07.146Z,96793.72
2022-09-30T19:37:34.979Z,96778.88
2022-09-30T19:40:14.485Z,96783.50
2022-09-30T19:42:48.164Z,96783.84
2022-09-30T19:45:16.554Z,96782.16
2022-09-30T19:47:43.415Z,96775.03
2022-09-30T19:50:10.076Z,96777.22
2022-09-30T19:52:43.135Z,96781.22
2022-09-30T19:55:16.945Z,96776.50
2022-09-30T19:57:43.696Z,96785.66
2022-09-30T20:00:12.475Z,96784.91
2022-09-30T20:02:39.080Z,96782.28
2022-09-30T20:05:06.436Z,96774.91
2022-09-30T20:07:33.012Z,96774.81
2022-09-30T20:10:00.862Z,96767.78
2022-09-30T20:12:28.541Z,96778.47
2022-09-30T20:15:13.847Z,96783.72
2022-09-30T20:17:40.382Z,96779.41
2022-09-30T20:20:25.760Z,96777.41
2022-09-30T20:22:53.265Z,96775.53
2022-09-30T20:25:20.226Z,96771.66
2022-09-30T20:27:52.014Z,96769.94
2022-09-30T20:30:19.752Z,96768.50
2022-09-30T20:32:46.194Z,96766.72
2022-09-30T20:35:12.983Z,96768.28
2022-09-30T20:37:40.768Z,96767.78
2022-09-30T20:40:09.314Z,96767.13
2022-09-30T20:42:37.856Z,96759.66
2022-09-30T20:45:06.192Z,96760.72
2022-09-30T20:47:32.652Z,96752.31
2022-09-30T20:49:59.114Z,96764.59
2022-09-30T20:52:25.664Z,96758.28
2022-09-30T20:54:53.084Z,96756.28
2022-09-30T20:57:19.601Z,96745.88
2022-09-30T20:59:47.218Z,96752.81
2022-09-30T21:02:14.332Z,96752.97
2022-09-30T21:04:40.911Z,96751.59
2022-09-30T21:07:07.406Z,96756.41
2022-09-30T21:09:36.694Z,96769.53
2022-09-30T21:12:03.208Z,96771.28
2022-09-30T21:14:29.667Z,96773.63
2022-09-30T21:16:56.098Z,96774.19
2022-09-30T21:19:22.599Z,96775.88
2022-09-30T21:21:49.045Z,96778.03
2022-09-30T21:24:16.387Z,96785.81
2022-09-30T21:26:43.274Z,96794.31
2022-09-30T21:29:09.736Z,96794.22
2022-09-30T21:31:37.813Z,96796.03
2022-09-30T21:34:04.647Z,96798.97
2022-09-30T21:36:32.158Z,96800.47
2022-09-30T21:39:04.864Z,96813.88
2022-09-30T21:41:33.307Z,96815.47
2022-09-30T21:44:01.367Z,96819.75
2022-09-30T21:46:29.451Z,96824.63
2022-09-30T21:49:07.720Z,96830.81
2022-09-30T21:51:35.324Z,96829.28
2022-09-30T21:54:02.860Z,96824.78
2022-09-30T21:56:29.343Z,96827.84
2022-09-30T21:58:56.085Z,96822.09
2022-09-30T22:01:23.278Z,96825.38
2022-09-30T22:03:49.859Z,96825.78
2022-09-30T22:06:19.218Z,96828.13
2022-09-30T22:08:45.955Z,96826.97
2022-09-30T22:11:25.306Z,96825.88
2022-09-30T22:13:55.515Z,96824.63
2022-09-30T22:16:25.996Z,96829.13
2022-09-30T22:19:00.824Z,96824.47
2022-09-30T22:21:32.024Z,96814.47
2022-09-30T22:24:01.564Z,96811.22
2022-09-30T22:26:29.676Z,96815.94
2022-09-30T22:28:58.673Z,96809.75
2022-09-30T22:31:27.266Z,96807.25
2022-09-30T22:34:20.689Z,96804.50
2022-09-30T22:37:06.330Z,96808.50
2022-09-30T22:39:33.095Z,96801.81
2022-09-30T22:42:00.393Z,96806.69
2022-09-30T22:44:29.453Z,96811.19
2022-09-30T22:46:58.039Z,96810.28
2022-09-30T22:49:25.287Z,96828.66
2022-09-30T22:51:53.318Z,96830.31
2022-09-30T22:54:20.588Z,96828.22
2022-09-30T22:56:48.849Z,96834.50
2022-09-30T22:59:15.822Z,96832.72
2022-09-30T23:01:43.870Z,96832.09
2022-09-30T23:04:11.370Z,96836.94
2022-09-30T23:06:38.078Z,96845.94
2022-09-30T23:09:05.601Z,96845.34
2022-09-30T23:11:32.805Z,96848.06
2022-09-30T23:13:59.552Z,96853.63
2022-09-30T23:16:26.249Z,96847.19
2022-09-30T23:18:52.929Z,96853.06
2022-09-30T23:21:19.767Z,96851.59
2022-09-30T23:23:48.289Z,96848.25
2022-09-30T23:26:18.033Z,96847.94
2022-09-30T23:28:45.538Z,96854.47
2022-09-30T23:31:15.906Z,96858.56
2022-09-30T23:33:49.011Z,96853.63
2022-09-30T23:36:18.066Z,96856.59
2022-09-30T23:38:44.990Z,96853.13
2022-09-30T23:41:13.152Z,96856.06
2022-09-30T23:43:40.091Z,96856.94
2022-09-30T23:46:07.606Z,96855.63
2022-09-30T23:48:36.464Z,96860.16
2022-09-30T23:51:05.269Z,96863.50
2022-09-30T23:53:33.299Z,96861.19
2022-09-30T23:56:09.509Z,96866.63
2022-09-30T23:58:36.311Z,96870.34
